createdAt,value
2023-03-22T00:02:23.070Z,17.60
2023-03-22T00:07:25.082Z,16.65
2023-03-22T00:12:26.448Z,15.90
2023-03-22T00:17:28.468Z,17.17
2023-03-22T00:22:30.088Z,15.38
2023-03-22T00:27:31.984Z,15.15
2023-03-22T00:32:36.033Z,13.95
2023-03-22T00:37:41.256Z,12.13
2023-03-22T00:42:44.097Z,11.30
2023-03-22T00:47:45.826Z,10.98
2023-03-22T00:52:47.344Z,10.32
2023-03-22T00:57:48.744Z,9.18
2023-03-22T01:02:53.903Z,9.75
2023-03-22T01:07:55.598Z,9.10
2023-03-22T01:12:57.175Z,8.95
2023-03-22T01:17:58.914Z,9.43
2023-03-22T01:23:00.991Z,9.82
2023-03-22T01:28:03.147Z,9.07
2023-03-22T01:33:05.727Z,9.30
2023-03-22T01:38:07.256Z,8.90
2023-03-22T01:43:17.443Z,8.27
2023-03-22T01:48:22.156Z,8.02
2023-03-22T01:53:26.646Z,8.38
2023-03-22T01:58:28.378Z,8.07
2023-03-22T02:03:43.258Z,8.80
2023-03-22T02:08:45.084Z,7.80
2023-03-22T02:13:56.837Z,7.90
2023-03-22T02:19:09.150Z,7.57
2023-03-22T02:24:45.333Z,7.70
2023-03-22T02:29:58.657Z,7.38
2023-03-22T02:35:23.393Z,7.55
2023-03-22T02:40:43.405Z,7.38
2023-03-22T02:45:54.604Z,7.88
2023-03-22T02:51:03.865Z,8.60
2023-03-22T02:56:21.595Z,8.55
2023-03-22T03:01:30.598Z,8.57
2023-03-22T03:06:38.943Z,9.45
2023-03-22T03:11:40.893Z,8.88
2023-03-22T03:16:42.402Z,8.40
2023-03-22T03:21:49.756Z,9.10
2023-03-22T03:27:04.938Z,8.20
2023-03-22T03:32:36.093Z,8.23
2023-03-22T03:37:44.789Z,9.48
2023-03-22T03:42:51.879Z,8.85
2023-03-22T03:47:57.662Z,8.88
2023-03-22T03:53:00.553Z,9.00
2023-03-22T03:58:02.220Z,8.82
2023-03-22T04:03:04.699Z,9.02
2023-03-22T04:08:06.331Z,9.13
2023-03-22T04:13:08.011Z,9.02
2023-03-22T04:18:11.269Z,8.63
2023-03-22T04:23:12.627Z,8.52
2023-03-22T04:28:14.213Z,10.05
2023-03-22T04:33:15.616Z,8.90
2023-03-22T04:38:18.177Z,9.15
2023-03-22T04:43:21.192Z,8.30
2023-03-22T04:48:23.806Z,9.55
2023-03-22T04:53:27.445Z,9.88
2023-03-22T04:58:29.246Z,7.60
2023-03-22T05:03:31.014Z,8.60
2023-03-22T05:08:33.305Z,8.10
2023-03-22T05:13:36.478Z,8.95
2023-03-22T05:18:42.255Z,8.00
2023-03-22T05:23:45.164Z,9.13
2023-03-22T05:28:47.078Z,9.40
2023-03-22T05:33:51.515Z,8.93
2023-03-22T05:38:52.959Z,8.27
2023-03-22T05:43:54.649Z,9.38
2023-03-22T05:48:57.655Z,9.00
2023-03-22T05:53:59.164Z,9.50
2023-03-22T05:59:00.665Z,9.13
2023-03-22T06:04:02.217Z,8.32
2023-03-22T06:09:16.576Z,8.10
2023-03-22T06:14:18.777Z,9.48
2023-03-22T06:19:21.578Z,9.93
2023-03-22T06:24:23.465Z,9.43
2023-03-22T06:29:24.944Z,8.65
2023-03-22T06:34:26.607Z,9.52
2023-03-22T06:39:28.594Z,8.93
2023-03-22T06:44:30.216Z,9.70
2023-03-22T06:49:31.724Z,8.73
2023-03-22T06:54:33.898Z,9.38
2023-03-22T06:59:37.626Z,8.90
2023-03-22T07:04:39.162Z,8.60
2023-03-22T07:09:40.620Z,8.40
2023-03-22T07:14:41.995Z,7.82
2023-03-22T07:19:43.408Z,7.22
2023-03-22T07:24:56.222Z,7.00
2023-03-22T07:30:00.005Z,6.10
2023-03-22T07:35:01.482Z,7.05
2023-03-22T07:40:04.944Z,5.95
2023-03-22T07:45:07.775Z,6.38
2023-03-22T07:50:14.462Z,6.10
2023-03-22T07:55:17.795Z,5.78
2023-03-22T08:00:19.597Z,6.25
2023-03-22T08:05:22.827Z,5.57
2023-03-22T08:10:24.382Z,5.32
2023-03-22T08:15:25.914Z,5.35
2023-03-22T08:20:27.800Z,5.47
2023-03-22T08:25:30.220Z,5.15
2023-03-22T08:30:31.928Z,5.20
2023-03-22T08:35:34.245Z,4.65
2023-03-22T08:40:36.010Z,4.72
2023-03-22T08:45:38.405Z,3.58
2023-03-22T08:50:41.143Z,4.07
2023-03-22T08:55:45.078Z,3.47
2023-03-22T09:00:49.487Z,4.13
2023-03-22T09:05:52.444Z,2.85
2023-03-22T09:10:54.629Z,2.70
2023-03-22T09:15:56.954Z,2.30
2023-03-22T09:20:58.798Z,2.63
2023-03-22T09:26:02.104Z,1.90
2023-03-22T09:31:09.706Z,1.80
2023-03-22T09:36:12.752Z,2.25
2023-03-22T09:41:35.516Z,2.15
2023-03-22T09:46:40.910Z,2.20
2023-03-22T09:51:53.506Z,1.98
2023-03-22T09:57:27.740Z,1.65
2023-03-22T10:02:37.781Z,1.40
2023-03-22T10:07:57.642Z,1.90
2023-03-22T10:13:00.067Z,1.30
2023-03-22T10:18:06.838Z,1.50
2023-03-22T10:23:15.650Z,1.10
2023-03-22T10:28:25.199Z,0.90
2023-03-22T10:33:52.636Z,1.17
2023-03-22T10:39:13.850Z,1.00
2023-03-22T10:44:19.904Z,0.93
2023-03-22T10:49:33.119Z,1.10
2023-03-22T10:54:36.737Z,0.93
2023-03-22T11:04:50.037Z,0.80
2023-03-22T11:09:58.809Z,0.60
2023-03-22T11:15:00.786Z,0.70
2023-03-22T11:20:10.182Z,0.57
2023-03-22T11:25:20.519Z,0.73
2023-03-22T11:30:28.088Z,0.77
2023-03-22T11:35:31.048Z,0.47
2023-03-22T11:40:36.440Z,0.40
2023-03-22T11:45:42.261Z,0.52
2023-03-22T11:50:45.650Z,0.85
2023-03-22T11:55:49.109Z,0.40
2023-03-22T12:00:53.507Z,0.25
2023-03-22T12:05:56.358Z,0.55
2023-03-22T12:11:04.926Z,0.32
2023-03-22T12:16:07.997Z,0.57
2023-03-22T12:21:11.878Z,0.75
2023-03-22T12:26:18.362Z,0.50
2023-03-22T12:31:26.534Z,0.35
2023-03-22T12:36:38.385Z,0.43
2023-03-22T12:41:47.426Z,0.50
2023-03-22T12:47:00.740Z,0.40
2023-03-22T12:52:15.396Z,0.40
2023-03-22T12:57:17.204Z,0.52
2023-03-22T13:02:27.440Z,0.50
2023-03-22T13:07:31.739Z,0.73
2023-03-22T13:12:34.829Z,0.80
2023-03-22T13:17:45.410Z,0.50
2023-03-22T13:22:46.918Z,0.30
2023-03-22T13:27:54.463Z,0.50
2023-03-22T13:33:14.662Z,0.50
2023-03-22T13:38:19.948Z,0.30
2023-03-22T13:43:24.614Z,0.52
2023-03-22T13:48:47.480Z,0.35
2023-03-22T13:54:05.625Z,0.60
2023-03-22T13:59:11.085Z,0.40
2023-03-22T14:04:22.773Z,0.60
2023-03-22T14:09:31.349Z,0.30
2023-03-22T14:14:39.958Z,0.88
2023-03-22T14:19:42.476Z,1.92
